Hawthorne, CA

3:14 PM PST on January 30, 2015 (GMT -0800)
West Gardena | Change Station
CLOSE
Current Station
Personal Weather Station
Location: Gardena, CA
Elevation: 59 ft
Nearby Weather Stations

Elev 59 ft 33.90 °N, 118.32 °W | Updated 4 minutes ago

Mostly Cloudy
Mostly Cloudy
67.5 °F
Feels Like 67.5 °F
N
5.3
Wind Variable Wind from WSW

Today
High -- | Low -- °F
--% Chance of Precip.
Yesterday
High -- | Low -- °F
Precip. -- in
6:51 AM 5:22 PM
Waxing Gibbous, 85% visible
Pressure 29.84 in
Visibility 10.0 miles
Clouds Few 9500 ft
Dew Point 53 °F
Humidity 60%
Rainfall 0.00 in
Snow Depth Not available.
UV 3 out of 12
Pollen 6.90 out of 12
Air Quality Not available.
Flu Activity Not available.
METAR KHHR 302153Z 23006KT 10SM FEW095 21/08 A2985 RMK AO2 SLP105 T02060078

More Conditions Fewer Conditions

Pressure 29.84 in
Visibility 10.0 miles
Clouds Few 9500 ft
Dew Point 53 °F
Humidity 60%
Rainfall 0.00 in
Snow Depth Not available.
UV 3 out of 12
Pollen 6.90 out of 12
Air Quality Not available.
Flu Activity Not available.
METAR KHHR 302153Z 23006KT 10SM FEW095 21/08 A2985 RMK AO2 SLP105 T02060078

More Conditions Fewer Conditions

Nowcast | as of 2:03 PM PST on January 30, 2015

Scattered showers and isolated thunderstorms will continue across Los Angeles County this afternoon...with some areas seeing wet roadways during the afternoon rush hour. Some of these storms could produce brief heavy downpours. At 150 PM...Doppler radar indicated developing shower activity across the Santa Clarita valley...extending northeastward across the Highway 14 corridor through the Los Angeles County mountains and Antelope Valley. These showers were drifting to the south and will impact portions of the San Fernando Valley...Santa Monica Mountains...and Los Angeles basin through the afternoon.

×

10-Day Weather Forecast

Almanac

Astronomy

Jan. 30, 2015 Rise Set
Actual Time
Civil Twilight
Nautical Twilight
Astronomical Twilight
Moon
Length of Visible Light
Length of Day
Tomorrow will be .
, % of the Moon is Illuminated

Today's Extremes

State Highs State Lows

Community

WunderPhotos

Upload Photos

1,791,918 photos uploaded!

WunderBlogs® & News

Nearby

Air Quality

  Air Quality AQ Index Pollutant
Not available.

Snow Depth

Station Depth Elevation

Earthquake Activity

City Distance Mag. Time & Date
Minimum magnitude displayed is 2.5.

Coastal Water Temperatures

Place Temperature

Nearby Weather Stations